Time;durP1;ratioP1;P1;durP2;ratioP2;P2;SDS_P1;SDS_P2;PMS_P1;PMS_P2;Temp;Humidity;BMP_temperature;BMP_pressure;BME280_temperature;BME280_humidity;BME280_pressure;Samples;Min_cycle;Max_cycle;Signal;HPM_P1;HPM_P2
2021/03/04 00:00:33;;;;;;;;;15.00;15.00;;;;;;;;5024942;28;10410;-76
2021/03/04 00:03:01;;;;;;;;;14.75;13.50;;;;;;;;5023085;28;10241;-76
2021/03/04 00:05:30;;;;;;;;;18.75;17.50;;;;;;;;5018021;28;11147;-76
2021/03/04 00:08:00;;;;;;;;;18.00;16.00;;;;;;;;5023404;28;10201;-76
2021/03/04 00:10:28;;;;;;;;;17.50;16.00;;;;;;;;5023836;28;10272;-76
2021/03/04 00:12:56;;;;;;;;;35.75;31.50;;;;;;;;5011020;28;10267;-76
2021/03/04 00:15:25;;;;;;;;;20.25;18.00;;;;;;;;5024329;28;10939;-75
2021/03/04 00:17:52;;;;;;;;;19.00;18.50;;;;;;;;5022821;28;10428;-76
2021/03/04 00:20:21;;;;;;;;;23.75;21.50;;;;;;;;5016437;28;10620;-75
2021/03/04 00:22:49;;;;;;;;;20.00;18.75;;;;;;;;5026548;28;10425;-75
2021/03/04 00:25:17;;;;;;;;;26.75;25.00;;;;;;;;5028386;28;10560;-76
2021/03/04 00:27:44;;;;;;;;;12.00;12.00;;;;;;;;5027014;28;10531;-75
2021/03/04 00:30:13;;;;;;;;;23.25;18.75;;;;;;;;5024040;28;10277;-75
2021/03/04 00:32:39;;;;;;;;;11.25;11.25;;;;;;;;5029155;28;10401;-76
2021/03/04 00:35:08;;;;;;;;;22.00;17.50;;;;;;;;5026917;28;10437;-75
2021/03/04 00:37:36;;;;;;;;;23.00;18.50;;;;;;;;5025620;28;10603;-76
2021/03/04 00:40:07;;;;;;;;;25.75;20.25;;;;;;;;5026755;28;10372;-76
2021/03/04 00:42:34;;;;;;;;;21.25;16.25;;;;;;;;5027551;28;10557;-75
2021/03/04 00:45:01;;;;;;;;;14.25;14.25;;;;;;;;5006724;28;10358;-76
2021/03/04 00:47:28;;;;;;;;;23.50;21.75;;;;;;;;5026924;28;10441;-73
2021/03/04 00:49:55;;;;;;;;;20.00;19.75;;;;;;;;5027159;28;10372;-74
2021/03/04 00:52:22;;;;;;;;;13.00;13.00;;;;;;;;5026196;28;10495;-74
2021/03/04 00:54:50;;;;;;;;;23.25;20.75;;;;;;;;5025710;28;10508;-75
2021/03/04 00:57:17;;;;;;;;;19.00;18.00;;;;;;;;5007953;28;10813;-74
2021/03/04 00:59:44;;;;;;;;;13.50;13.50;;;;;;;;5026052;28;10534;-74
2021/03/04 01:02:11;;;;;;;;;22.00;19.00;;;;;;;;5025814;28;10692;-74
2021/03/04 01:04:38;;;;;;;;;34.75;27.25;;;;;;;;5024904;28;10865;-74
2021/03/04 01:07:04;;;;;;;;;23.00;21.50;;;;;;;;5026304;28;11091;-74
2021/03/04 01:09:31;;;;;;;;;22.00;21.00;;;;;;;;5025607;28;10788;-74
2021/03/04 01:12:01;;;;;;;;;16.75;16.75;;;;;;;;5026580;28;11539;-74
2021/03/04 01:14:28;;;;;;;;;16.00;16.00;;;;;;;;5025897;28;10592;-74
2021/03/04 01:16:55;;;;;;;;;22.25;20.25;;;;;;;;5013216;28;11670;-74
2021/03/04 01:19:22;;;;;;;;;18.00;16.50;;;;;;;;5023481;28;10950;-74
2021/03/04 01:21:49;;;;;;;;;17.00;16.50;;;;;;;;5017943;28;10824;-74
2021/03/04 01:24:16;;;;;;;;;18.75;17.00;;;;;;;;5008853;28;10670;-74
2021/03/04 01:26:43;;;;;;;;;14.50;14.50;;;;;;;;5025558;28;10693;-74
2021/03/04 01:29:10;;;;;;;;;19.75;19.75;;;;;;;;5009062;28;10750;-74
2021/03/04 01:31:37;;;;;;;;;11.50;11.50;;;;;;;;5024752;28;10819;-75
2021/03/04 01:34:04;;;;;;;;;17.75;14.50;;;;;;;;5025949;28;10743;-75
2021/03/04 01:36:31;;;;;;;;;14.50;13.25;;;;;;;;5017973;28;10820;-74
2021/03/04 01:38:57;;;;;;;;;17.50;15.75;;;;;;;;5026615;28;10663;-74
2021/03/04 01:41:24;;;;;;;;;16.00;13.00;;;;;;;;5025425;28;10812;-74
2021/03/04 01:43:51;;;;;;;;;17.00;16.00;;;;;;;;5025158;28;10896;-74
2021/03/04 01:46:19;;;;;;;;;15.00;15.00;;;;;;;;5024332;28;10934;-74
2021/03/04 01:48:46;;;;;;;;;12.00;12.00;;;;;;;;5024168;28;10886;-74
2021/03/04 01:51:12;;;;;;;;;16.00;14.50;;;;;;;;5021463;28;10891;-74
2021/03/04 01:53:39;;;;;;;;;15.75;15.50;;;;;;;;5021452;28;11092;-74
2021/03/04 01:56:06;;;;;;;;;17.00;15.75;;;;;;;;5026199;28;11107;-74
2021/03/04 01:58:33;;;;;;;;;16.00;16.00;;;;;;;;5025084;28;11261;-74
2021/03/04 02:01:00;;;;;;;;;16.25;16.25;;;;;;;;5020194;28;11863;-73
2021/03/04 02:03:28;;;;;;;;;11.75;10.00;;;;;;;;5025967;28;11325;-74
2021/03/04 02:05:55;;;;;;;;;19.00;14.50;;;;;;;;5024281;28;11125;-74
2021/03/04 02:08:25;;;;;;;;;18.25;16.50;;;;;;;;5021691;28;11255;-75
2021/03/04 02:10:55;;;;;;;;;24.75;19.50;;;;;;;;5023224;28;12009;-73
2021/03/04 02:13:28;;;;;;;;;15.00;14.50;;;;;;;;5025087;28;11511;-73
2021/03/04 02:16:00;;;;;;;;;15.25;13.00;;;;;;;;5025482;28;11218;-73
2021/03/04 02:18:30;;;;;;;;;21.00;16.25;;;;;;;;5013665;28;11215;-74
2021/03/04 02:21:29;;;;;;;;;20.00;17.00;;;;;;;;5016417;28;11454;-73
2021/03/04 02:24:24;;;;;;;;;15.75;15.75;;;;;;;;5015999;28;11306;-74
2021/03/04 02:27:16;;;;;;;;;18.50;16.25;;;;;;;;5025811;28;11301;-74
2021/03/04 02:29:45;;;;;;;;;19.00;19.00;;;;;;;;5041019;28;11594;-73
2021/03/04 02:32:12;;;;;;;;;16.00;16.00;;;;;;;;5026018;28;11202;-74
2021/03/04 02:34:45;;;;;;;;;17.75;15.00;;;;;;;;5027859;28;11328;-74
2021/03/04 02:37:16;;;;;;;;;17.25;17.25;;;;;;;;5015078;28;11328;-73
2021/03/04 02:39:46;;;;;;;;;16.00;16.00;;;;;;;;5025284;28;11633;-74
2021/03/04 02:42:17;;;;;;;;;17.75;17.75;;;;;;;;5024118;28;11623;-74
2021/03/04 02:44:45;;;;;;;;;18.75;17.75;;;;;;;;5019180;28;11569;-74
2021/03/04 02:47:12;;;;;;;;;14.00;11.00;;;;;;;;5025828;28;11606;-74
2021/03/04 02:49:39;;;;;;;;;12.00;12.00;;;;;;;;5023862;28;11489;-74
2021/03/04 02:52:07;;;;;;;;;15.25;15.25;;;;;;;;5024839;28;11616;-74
2021/03/04 02:54:34;;;;;;;;;13.25;13.25;;;;;;;;5025171;28;11621;-73
2021/03/04 02:57:03;;;;;;;;;15.50;15.50;;;;;;;;5025832;28;11497;-74
2021/03/04 02:59:32;;;;;;;;;14.00;11.50;;;;;;;;5034502;28;11477;-73
2021/03/04 03:01:59;;;;;;;;;15.00;14.00;;;;;;;;5023572;28;11432;-73
2021/03/04 03:04:26;;;;;;;;;19.50;15.25;;;;;;;;5024479;28;11600;-74
2021/03/04 03:06:54;;;;;;;;;14.75;14.75;;;;;;;;5013237;28;11496;-74
2021/03/04 03:09:21;;;;;;;;;15.50;15.00;;;;;;;;5022690;28;11519;-74
2021/03/04 03:11:48;;;;;;;;;10.75;10.50;;;;;;;;5023754;28;11534;-74
2021/03/04 03:14:16;;;;;;;;;16.25;14.00;;;;;;;;5023393;28;11491;-74
2021/03/04 03:16:44;;;;;;;;;15.00;13.75;;;;;;;;5019128;28;11500;-74
2021/03/04 03:19:11;;;;;;;;;16.25;16.25;;;;;;;;5023881;28;11671;-74
2021/03/04 03:21:38;;;;;;;;;20.75;17.75;;;;;;;;5024804;28;12067;-74
2021/03/04 03:24:06;;;;;;;;;26.00;22.25;;;;;;;;5023042;28;11510;-74
2021/03/04 03:26:33;;;;;;;;;23.25;18.50;;;;;;;;5020408;28;12266;-73
2021/03/04 03:29:00;;;;;;;;;27.75;27.75;;;;;;;;5020734;28;11499;-72
2021/03/04 03:31:30;;;;;;;;;22.75;21.00;;;;;;;;5024641;28;11558;-73
2021/03/04 03:33:59;;;;;;;;;24.00;19.00;;;;;;;;5023851;28;11549;-74
2021/03/04 03:36:26;;;;;;;;;21.50;19.00;;;;;;;;5021605;28;11486;-73
2021/03/04 03:38:54;;;;;;;;;16.00;13.75;;;;;;;;5023875;28;11464;-74
2021/03/04 03:41:22;;;;;;;;;22.50;19.25;;;;;;;;5018587;28;11553;-74
2021/03/04 03:43:49;;;;;;;;;24.00;19.00;;;;;;;;5017718;28;11523;-74
2021/03/04 03:46:17;;;;;;;;;26.50;23.25;;;;;;;;5017356;28;11548;-74
2021/03/04 03:48:45;;;;;;;;;27.50;24.00;;;;;;;;5024346;28;11504;-74
2021/03/04 03:51:13;;;;;;;;;13.25;13.25;;;;;;;;5006942;28;11547;-74
2021/03/04 03:53:39;;;;;;;;;22.25;22.00;;;;;;;;5006400;28;11625;-74
2021/03/04 03:56:07;;;;;;;;;20.75;18.75;;;;;;;;5026400;28;11514;-75
2021/03/04 03:58:38;;;;;;;;;23.50;22.25;;;;;;;;5030919;28;11553;-74
2021/03/04 04:01:05;;;;;;;;;34.25;26.50;;;;;;;;5030478;28;11447;-73
2021/03/04 04:03:33;;;;;;;;;25.50;25.50;;;;;;;;5026865;28;12292;-75
2021/03/04 04:05:59;;;;;;;;;25.00;25.00;;;;;;;;5027514;28;11519;-74
2021/03/04 04:08:30;;;;;;;;;23.75;20.25;;;;;;;;5026995;28;11577;-73
2021/03/04 04:10:57;;;;;;;;;29.50;27.50;;;;;;;;5024504;28;11507;-76
2021/03/04 04:13:24;;;;;;;;;24.00;21.75;;;;;;;;5027339;28;11652;-74
2021/03/04 04:15:51;;;;;;;;;24.25;23.25;;;;;;;;5026766;28;11539;-75
2021/03/04 04:18:19;;;;;;;;;26.50;26.25;;;;;;;;5023817;28;11515;-74
2021/03/04 04:20:50;;;;;;;;;26.25;26.25;;;;;;;;5025735;28;11527;-74
2021/03/04 04:23:19;;;;;;;;;24.00;22.00;;;;;;;;5019311;28;11599;-73
2021/03/04 04:25:50;;;;;;;;;30.50;30.00;;;;;;;;5022815;28;11561;-74
2021/03/04 04:28:18;;;;;;;;;28.00;24.50;;;;;;;;5017708;28;11652;-74
2021/03/04 04:30:46;;;;;;;;;23.75;21.75;;;;;;;;5022284;28;11542;-75
2021/03/04 04:33:13;;;;;;;;;23.00;20.00;;;;;;;;5027366;28;11555;-74
2021/03/04 04:35:40;;;;;;;;;26.50;22.75;;;;;;;;5027539;28;11498;-74
2021/03/04 04:38:07;;;;;;;;;23.50;21.25;;;;;;;;5026521;28;11506;-74
2021/03/04 04:40:34;;;;;;;;;22.75;21.00;;;;;;;;5024360;28;11495;-74
2021/03/04 04:43:02;;;;;;;;;28.25;22.75;;;;;;;;5025714;28;11517;-74
2021/03/04 04:45:33;;;;;;;;;25.00;23.00;;;;;;;;5027432;28;11531;-74
2021/03/04 04:47:59;;;;;;;;;27.75;26.25;;;;;;;;5008741;28;11639;-74
2021/03/04 04:50:26;;;;;;;;;27.25;23.50;;;;;;;;5021579;28;11552;-74
2021/03/04 04:52:53;;;;;;;;;28.25;26.25;;;;;;;;5026728;28;11484;-74
2021/03/04 04:55:20;;;;;;;;;31.00;31.00;;;;;;;;5014020;28;11492;-74
2021/03/04 04:57:47;;;;;;;;;27.25;24.75;;;;;;;;5022593;28;11527;-74
2021/03/04 05:00:16;;;;;;;;;31.50;29.25;;;;;;;;5032218;28;11552;-74
2021/03/04 05:02:43;;;;;;;;;35.50;30.75;;;;;;;;5027054;28;11505;-74
2021/03/04 05:05:11;;;;;;;;;32.00;30.25;;;;;;;;5026448;28;11500;-74
2021/03/04 05:07:38;;;;;;;;;32.50;26.75;;;;;;;;5025333;28;11512;-74
2021/03/04 05:10:06;;;;;;;;;30.50;27.50;;;;;;;;5026894;28;11520;-74
2021/03/04 05:12:32;;;;;;;;;31.00;27.75;;;;;;;;5023924;28;11521;-74
2021/03/04 05:14:59;;;;;;;;;31.50;28.00;;;;;;;;5027007;28;11565;-74
2021/03/04 05:17:27;;;;;;;;;30.50;29.50;;;;;;;;5025249;28;11532;-74
2021/03/04 05:19:53;;;;;;;;;40.75;38.25;;;;;;;;5025338;28;11598;-74
2021/03/04 05:22:20;;;;;;;;;38.00;37.25;;;;;;;;5017713;28;11718;-74
2021/03/04 05:24:47;;;;;;;;;46.75;41.75;;;;;;;;5018738;28;11628;-74
2021/03/04 05:27:14;;;;;;;;;46.00;40.50;;;;;;;;5026649;28;12987;-74
2021/03/04 05:29:41;;;;;;;;;43.25;40.50;;;;;;;;5007458;28;11620;-74
2021/03/04 05:32:09;;;;;;;;;41.25;37.00;;;;;;;;5028050;28;11535;-74
2021/03/04 05:34:37;;;;;;;;;41.00;38.75;;;;;;;;5024851;28;11682;-75
2021/03/04 05:37:04;;;;;;;;;53.25;44.50;;;;;;;;5025683;28;11573;-74
2021/03/04 05:39:31;;;;;;;;;32.75;31.75;;;;;;;;5019905;28;11553;-75
2021/03/04 05:41:58;;;;;;;;;49.25;42.50;;;;;;;;5027845;28;11590;-74
2021/03/04 05:44:25;;;;;;;;;47.50;43.50;;;;;;;;5026089;28;11673;-75
2021/03/04 05:46:53;;;;;;;;;51.25;43.75;;;;;;;;5023342;28;11601;-74
2021/03/04 05:49:20;;;;;;;;;59.50;45.25;;;;;;;;5025748;28;11585;-74
2021/03/04 05:51:50;;;;;;;;;51.00;44.25;;;;;;;;5021240;28;11713;-74
2021/03/04 05:54:17;;;;;;;;;56.75;46.25;;;;;;;;5026536;28;11587;-74
2021/03/04 05:56:45;;;;;;;;;50.25;44.50;;;;;;;;5017712;28;11575;-74
2021/03/04 05:59:13;;;;;;;;;41.50;38.25;;;;;;;;5027185;28;11602;-74
2021/03/04 06:01:40;;;;;;;;;48.00;41.25;;;;;;;;5015701;28;11561;-74
2021/03/04 06:04:07;;;;;;;;;64.50;51.50;;;;;;;;5021752;28;11574;-74
2021/03/04 06:06:34;;;;;;;;;64.50;53.25;;;;;;;;5019009;28;11571;-75
2021/03/04 06:09:03;;;;;;;;;66.00;50.00;;;;;;;;5024177;28;11605;-75
2021/03/04 06:11:30;;;;;;;;;60.50;46.25;;;;;;;;5025918;28;12517;-74
2021/03/04 06:13:58;;;;;;;;;60.50;50.25;;;;;;;;5024509;28;11653;-74
2021/03/04 06:16:26;;;;;;;;;58.75;45.75;;;;;;;;5023157;28;11606;-75
2021/03/04 06:18:52;;;;;;;;;39.50;26.25;;;;;;;;5023923;28;11567;-75
2021/03/04 06:21:21;;;;;;;;;58.25;46.00;;;;;;;;5025091;28;11594;-74
2021/03/04 06:23:48;;;;;;;;;57.50;43.75;;;;;;;;5025437;28;11693;-74
2021/03/04 06:26:35;;;;;;;;;64.50;52.50;;;;;;;;5024753;28;11608;-75
2021/03/04 06:29:13;;;;;;;;;56.50;45.00;;;;;;;;5025417;28;11666;-75
2021/03/04 06:31:40;;;;;;;;;58.00;47.50;;;;;;;;5023594;28;11512;-75
2021/03/04 06:34:17;;;;;;;;;60.25;46.75;;;;;;;;5024822;28;11607;-75
2021/03/04 06:36:55;;;;;;;;;62.75;51.25;;;;;;;;5024711;28;11584;-74
2021/03/04 06:39:22;;;;;;;;;54.50;45.25;;;;;;;;5024118;28;11572;-75
2021/03/04 06:42:01;;;;;;;;;63.25;50.25;;;;;;;;5021943;28;11580;-75
2021/03/04 06:44:28;;;;;;;;;47.25;42.00;;;;;;;;5021625;28;11578;-75
2021/03/04 06:46:55;;;;;;;;;55.00;46.75;;;;;;;;5018024;28;11644;-75
2021/03/04 06:49:22;;;;;;;;;60.25;47.25;;;;;;;;5019836;28;11575;-75
2021/03/04 06:51:48;;;;;;;;;60.25;47.50;;;;;;;;5019234;28;11578;-75
2021/03/04 06:54:25;;;;;;;;;46.25;39.75;;;;;;;;5025074;28;11623;-77
2021/03/04 06:56:52;;;;;;;;;58.00;46.25;;;;;;;;5021796;28;11620;-75
2021/03/04 06:59:19;;;;;;;;;40.00;39.00;;;;;;;;5028519;28;12511;-75
2021/03/04 07:01:46;;;;;;;;;46.00;37.50;;;;;;;;5023178;28;12325;-74
2021/03/04 07:04:14;;;;;;;;;52.75;41.25;;;;;;;;5024937;28;11594;-76
2021/03/04 07:06:44;;;;;;;;;45.25;41.00;;;;;;;;5024337;28;11575;-75
2021/03/04 07:09:12;;;;;;;;;50.50;41.50;;;;;;;;5011593;28;11580;-75
2021/03/04 07:11:38;;;;;;;;;52.25;42.50;;;;;;;;5024010;28;11585;-74
2021/03/04 07:14:06;;;;;;;;;50.75;42.50;;;;;;;;5017322;28;11601;-74
2021/03/04 07:16:38;;;;;;;;;46.75;41.25;;;;;;;;5005961;28;11644;-74
2021/03/04 07:19:09;;;;;;;;;41.00;38.00;;;;;;;;5023241;28;11590;-74
2021/03/04 07:21:39;;;;;;;;;42.75;37.75;;;;;;;;5024262;28;11584;-74
2021/03/04 07:24:07;;;;;;;;;41.00;37.25;;;;;;;;5021747;28;11582;-74
2021/03/04 07:26:36;;;;;;;;;43.25;39.00;;;;;;;;5024409;28;11697;-75
2021/03/04 07:29:05;;;;;;;;;45.75;39.75;;;;;;;;5024294;28;11660;-74
2021/03/04 07:31:32;;;;;;;;;42.75;39.50;;;;;;;;5023468;28;11558;-75
2021/03/04 07:34:01;;;;;;;;;41.50;39.00;;;;;;;;5011491;28;12326;-75
2021/03/04 07:36:29;;;;;;;;;36.50;35.25;;;;;;;;5011701;28;11483;-74
2021/03/04 07:38:57;;;;;;;;;57.00;44.00;;;;;;;;5024345;28;12213;-74
2021/03/04 07:41:36;;;;;;;;;44.25;40.25;;;;;;;;5016625;28;11580;-73
2021/03/04 07:44:03;;;;;;;;;45.00;38.75;;;;;;;;5017747;28;11600;-74
2021/03/04 07:46:35;;;;;;;;;46.50;40.50;;;;;;;;5017905;28;12317;-74
2021/03/04 07:49:06;;;;;;;;;50.50;43.75;;;;;;;;5018997;28;11567;-73
2021/03/04 07:51:43;;;;;;;;;55.00;44.25;;;;;;;;5020609;28;11488;-74
2021/03/04 07:54:10;;;;;;;;;47.00;40.00;;;;;;;;5015407;28;11514;-74
2021/03/04 07:56:37;;;;;;;;;50.00;41.75;;;;;;;;5020499;28;11515;-75
2021/03/04 07:59:12;;;;;;;;;50.25;40.75;;;;;;;;4997236;28;11635;-73
2021/03/04 08:01:40;;;;;;;;;37.00;33.25;;;;;;;;5015953;28;11467;-75
2021/03/04 08:04:20;;;;;;;;;37.75;33.25;;;;;;;;5016278;28;12393;-74
2021/03/04 08:06:49;;;;;;;;;45.00;40.75;;;;;;;;5014271;28;11534;-74
2021/03/04 08:09:31;;;;;;;;;50.50;42.25;;;;;;;;5018274;28;12447;-71
2021/03/04 08:12:06;;;;;;;;;46.00;40.50;;;;;;;;5019739;28;11504;-74
2021/03/04 08:14:33;;;;;;;;;50.25;41.00;;;;;;;;5012409;28;11515;-74
2021/03/04 08:17:00;;;;;;;;;37.00;35.25;;;;;;;;5015977;28;11527;-74
2021/03/04 08:19:28;;;;;;;;;39.00;37.00;;;;;;;;5016467;28;11518;-74
2021/03/04 08:22:05;;;;;;;;;46.25;39.50;;;;;;;;5015222;28;11631;-75
2021/03/04 08:24:33;;;;;;;;;43.25;39.25;;;;;;;;5012950;28;11548;-74
2021/03/04 08:27:00;;;;;;;;;44.25;37.25;;;;;;;;5018100;28;11537;-73
2021/03/04 08:29:29;;;;;;;;;42.75;39.25;;;;;;;;5018591;28;11595;-74
2021/03/04 08:32:01;;;;;;;;;49.75;43.50;;;;;;;;5019030;28;11572;-72
2021/03/04 08:34:37;;;;;;;;;48.50;42.25;;;;;;;;5015161;28;11532;-75
2021/03/04 08:37:05;;;;;;;;;27.50;23.00;;;;;;;;5019554;28;11513;-75
2021/03/04 08:39:36;;;;;;;;;48.00;39.00;;;;;;;;5014114;28;12253;-74
2021/03/04 08:42:07;;;;;;;;;47.50;39.00;;;;;;;;5018475;28;11512;-74
2021/03/04 08:44:34;;;;;;;;;49.75;41.25;;;;;;;;5002127;28;11557;-74
2021/03/04 08:47:02;;;;;;;;;38.75;37.50;;;;;;;;5020490;28;11237;-74
2021/03/04 08:49:32;;;;;;;;;44.00;39.75;;;;;;;;5022619;28;11457;-75
2021/03/04 08:52:00;;;;;;;;;43.50;40.25;;;;;;;;5025693;28;11233;-75
2021/03/04 08:54:28;;;;;;;;;50.00;42.50;;;;;;;;5025637;28;11566;-77
2021/03/04 08:56:57;;;;;;;;;49.75;43.50;;;;;;;;5027258;28;12320;-74
2021/03/04 08:59:25;;;;;;;;;45.00;41.50;;;;;;;;5023847;28;11355;-77
2021/03/04 09:01:52;;;;;;;;;48.25;39.25;;;;;;;;5023998;28;11967;-75
2021/03/04 09:04:20;;;;;;;;;31.75;29.00;;;;;;;;5019129;28;11252;-76
2021/03/04 09:06:47;;;;;;;;;38.00;34.75;;;;;;;;5006401;28;12080;-75
2021/03/04 09:09:26;;;;;;;;;35.50;35.50;;;;;;;;5023063;28;11502;-76
2021/03/04 09:11:53;;;;;;;;;44.00;37.75;;;;;;;;5020244;28;12940;-76
2021/03/04 09:14:26;;;;;;;;;44.50;37.50;;;;;;;;5021011;28;11290;-76
2021/03/04 09:16:53;;;;;;;;;36.00;33.50;;;;;;;;5022590;28;11405;-76
2021/03/04 09:19:37;;;;;;;;;44.50;37.75;;;;;;;;5026549;28;11068;-76
2021/03/04 09:22:05;;;;;;;;;19.75;19.75;;;;;;;;5024923;28;10891;-76
2021/03/04 09:24:34;;;;;;;;;40.25;37.75;;;;;;;;5025044;28;10959;-76
2021/03/04 09:27:03;;;;;;;;;35.75;35.50;;;;;;;;5023563;28;10992;-76
2021/03/04 09:29:32;;;;;;;;;41.75;38.25;;;;;;;;5025407;28;11605;-76
2021/03/04 09:31:59;;;;;;;;;37.50;35.50;;;;;;;;5027151;28;10790;-76
2021/03/04 09:34:31;;;;;;;;;40.00;33.75;;;;;;;;5024742;28;10869;-74
2021/03/04 09:37:06;;;;;;;;;45.00;37.50;;;;;;;;5023712;28;11558;-75
2021/03/04 09:39:50;;;;;;;;;34.75;34.50;;;;;;;;5026174;28;10914;-73
2021/03/04 09:42:19;;;;;;;;;48.50;40.50;;;;;;;;5015321;28;10788;-74
2021/03/04 09:44:50;;;;;;;;;43.00;39.75;;;;;;;;5026421;28;10860;-72
2021/03/04 09:47:22;;;;;;;;;36.00;34.50;;;;;;;;5024165;28;10871;-74
2021/03/04 09:49:49;;;;;;;;;38.50;35.75;;;;;;;;5024638;28;10684;-74
2021/03/04 09:52:23;;;;;;;;;35.75;30.75;;;;;;;;5034326;28;10711;-75
2021/03/04 09:54:52;;;;;;;;;40.00;34.25;;;;;;;;5028658;28;10702;-75
2021/03/04 09:57:20;;;;;;;;;32.00;28.00;;;;;;;;5021807;28;10542;-76
2021/03/04 09:59:49;;;;;;;;;33.75;32.00;;;;;;;;5023382;28;10440;-75
2021/03/04 10:02:16;;;;;;;;;28.00;26.00;;;;;;;;5024650;28;10471;-76
2021/03/04 10:04:54;;;;;;;;;23.00;22.75;;;;;;;;5023700;28;10859;-76
2021/03/04 10:07:24;;;;;;;;;25.00;25.00;;;;;;;;5021356;28;10714;-75
2021/03/04 10:09:52;;;;;;;;;15.00;15.00;;;;;;;;5020448;28;10614;-76
2021/03/04 10:12:19;;;;;;;;;27.50;22.50;;;;;;;;5021807;28;10457;-77
2021/03/04 10:14:47;;;;;;;;;22.25;20.00;;;;;;;;5026073;28;10446;-77
2021/03/04 10:17:14;;;;;;;;;22.00;22.00;;;;;;;;5025094;28;10385;-77
2021/03/04 10:19:41;;;;;;;;;23.00;17.00;;;;;;;;5025866;28;10532;-75
2021/03/04 10:22:08;;;;;;;;;25.00;20.25;;;;;;;;5019285;28;10060;-75
2021/03/04 10:24:35;;;;;;;;;23.75;19.75;;;;;;;;5011050;28;10411;-76
2021/03/04 10:27:03;;;;;;;;;22.75;20.25;;;;;;;;5025714;28;10248;-76
2021/03/04 10:29:31;;;;;;;;;25.00;24.00;;;;;;;;5024857;28;10231;-73
2021/03/04 10:31:58;;;;;;;;;23.75;23.75;;;;;;;;5029648;28;10234;-76
2021/03/04 10:34:25;;;;;;;;;30.00;28.00;;;;;;;;5027276;28;10232;-76
2021/03/04 10:36:52;;;;;;;;;32.00;30.25;;;;;;;;5023161;28;10467;-75
2021/03/04 10:39:20;;;;;;;;;38.00;33.75;;;;;;;;5023846;28;10459;-76
2021/03/04 10:41:47;;;;;;;;;41.50;35.75;;;;;;;;5020487;28;10457;-76
2021/03/04 10:44:15;;;;;;;;;28.75;26.00;;;;;;;;5018093;28;10680;-76
2021/03/04 10:46:42;;;;;;;;;29.25;29.25;;;;;;;;5023383;28;11217;-76
2021/03/04 10:49:09;;;;;;;;;34.75;28.75;;;;;;;;5025071;28;10362;-75
2021/03/04 10:51:37;;;;;;;;;37.25;32.50;;;;;;;;5023637;28;10357;-76
2021/03/04 10:54:04;;;;;;;;;37.00;33.00;;;;;;;;5025372;28;10502;-75
2021/03/04 10:56:31;;;;;;;;;27.50;23.75;;;;;;;;5023184;28;10325;-76
2021/03/04 10:58:58;;;;;;;;;25.50;23.00;;;;;;;;5025833;28;10237;-76
2021/03/04 11:01:25;;;;;;;;;28.75;23.50;;;;;;;;5023989;28;10031;-76
2021/03/04 11:03:52;;;;;;;;;31.50;26.25;;;;;;;;5012045;28;9906;-76
2021/03/04 11:06:19;;;;;;;;;27.00;26.00;;;;;;;;5022257;28;10048;-75
2021/03/04 11:08:46;;;;;;;;;28.25;25.75;;;;;;;;5017769;28;9914;-75
2021/03/04 11:11:13;;;;;;;;;30.75;27.25;;;;;;;;5011547;28;9979;-73
2021/03/04 11:13:40;;;;;;;;;27.50;24.50;;;;;;;;5022241;28;10124;-75
2021/03/04 11:16:07;;;;;;;;;25.50;20.00;;;;;;;;5000227;28;10228;-72
2021/03/04 11:18:35;;;;;;;;;32.25;27.75;;;;;;;;5011858;28;11192;-75
2021/03/04 11:21:01;;;;;;;;;31.00;29.25;;;;;;;;5020314;28;10406;-73
2021/03/04 11:23:28;;;;;;;;;36.50;30.75;;;;;;;;5015771;28;10301;-74
2021/03/04 11:25:55;;;;;;;;;40.75;32.50;;;;;;;;5019538;28;10241;-72
2021/03/04 11:28:22;;;;;;;;;40.75;37.00;;;;;;;;5020066;28;10125;-77
2021/03/04 11:30:49;;;;;;;;;34.00;31.75;;;;;;;;5017406;28;10097;-76
2021/03/04 11:33:17;;;;;;;;;36.00;35.00;;;;;;;;5023268;28;9945;-76
2021/03/04 11:35:45;;;;;;;;;32.75;30.00;;;;;;;;5017551;28;9885;-76
2021/03/04 11:38:12;;;;;;;;;31.50;28.00;;;;;;;;5022516;28;9912;-75
2021/03/04 11:40:39;;;;;;;;;32.00;26.25;;;;;;;;5022628;28;9726;-74
2021/03/04 11:43:06;;;;;;;;;25.00;24.50;;;;;;;;5023460;28;9808;-72
2021/03/04 11:45:32;;;;;;;;;35.25;27.25;;;;;;;;5020274;28;9615;-75
2021/03/04 11:47:59;;;;;;;;;31.00;26.50;;;;;;;;5022868;28;9800;-74
2021/03/04 11:50:26;;;;;;;;;31.50;30.00;;;;;;;;5024620;28;9658;-73
2021/03/04 11:52:54;;;;;;;;;22.67;22.67;;;;;;;;5021500;28;9491;-75
2021/03/04 11:55:21;;;;;;;;;21.25;21.25;;;;;;;;5018958;28;9420;-74
2021/03/04 11:57:48;;;;;;;;;34.75;28.75;;;;;;;;5023438;28;9510;-75
2021/03/04 12:00:17;;;;;;;;;30.25;27.50;;;;;;;;5031905;28;9554;-73
2021/03/04 12:02:44;;;;;;;;;32.00;31.75;;;;;;;;5024513;28;9649;-73
2021/03/04 12:05:12;;;;;;;;;29.00;27.50;;;;;;;;5011220;28;10382;-76
2021/03/04 12:07:39;;;;;;;;;33.50;30.50;;;;;;;;5015245;28;9810;-77
2021/03/04 12:10:09;;;;;;;;;38.00;32.00;;;;;;;;5015314;28;9858;-74
2021/03/04 12:12:35;;;;;;;;;31.75;31.75;;;;;;;;5023407;28;9731;-75
2021/03/04 12:15:10;;;;;;;;;34.50;34.25;;;;;;;;5019279;28;9676;-74
2021/03/04 12:17:37;;;;;;;;;32.25;27.25;;;;;;;;5017597;28;9735;-75
2021/03/04 12:20:05;;;;;;;;;33.25;29.25;;;;;;;;5006422;28;9784;-75
2021/03/04 12:22:33;;;;;;;;;33.00;29.50;;;;;;;;5023251;28;10720;-74
2021/03/04 12:25:00;;;;;;;;;38.00;35.25;;;;;;;;4991834;28;9956;-74
2021/03/04 12:27:28;;;;;;;;;33.00;31.50;;;;;;;;5015413;28;10151;-74
2021/03/04 12:29:55;;;;;;;;;39.75;33.00;;;;;;;;5025235;28;10384;-73
2021/03/04 12:32:22;;;;;;;;;36.75;25.75;;;;;;;;5027296;28;10265;-74
2021/03/04 12:34:49;;;;;;;;;31.75;24.75;;;;;;;;5027327;28;10161;-73
2021/03/04 12:37:16;;;;;;;;;26.50;21.75;;;;;;;;5023672;28;10118;-75
2021/03/04 12:39:43;;;;;;;;;32.25;27.50;;;;;;;;5026053;28;10172;-74
2021/03/04 12:42:11;;;;;;;;;36.50;31.25;;;;;;;;5027166;28;10088;-74
2021/03/04 12:44:39;;;;;;;;;31.75;30.50;;;;;;;;5020620;28;10059;-74
2021/03/04 12:47:05;;;;;;;;;26.75;24.50;;;;;;;;5023002;28;10258;-74
2021/03/04 12:49:32;;;;;;;;;31.00;26.75;;;;;;;;5021277;28;9998;-72
2021/03/04 12:51:59;;;;;;;;;24.75;23.75;;;;;;;;5023755;28;10073;-74
2021/03/04 12:54:26;;;;;;;;;35.75;28.50;;;;;;;;5002137;28;10671;-74
2021/03/04 12:56:55;;;;;;;;;27.25;26.50;;;;;;;;5021805;28;10153;-74
2021/03/04 12:59:22;;;;;;;;;24.50;22.00;;;;;;;;5005543;28;10130;-73
2021/03/04 13:01:50;;;;;;;;;29.00;27.50;;;;;;;;5022236;28;10803;-73
2021/03/04 13:04:16;;;;;;;;;25.25;20.75;;;;;;;;5016909;28;10256;-73
2021/03/04 13:06:43;;;;;;;;;25.00;21.00;;;;;;;;5023639;28;10847;-75
2021/03/04 13:09:10;;;;;;;;;21.50;19.00;;;;;;;;5025963;28;10074;-74
2021/03/04 13:11:38;;;;;;;;;27.00;22.00;;;;;;;;5024868;28;10064;-74
2021/03/04 13:14:05;;;;;;;;;27.00;21.00;;;;;;;;5024405;28;9985;-75
2021/03/04 13:16:32;;;;;;;;;30.00;23.50;;;;;;;;5024330;28;10034;-75
2021/03/04 13:19:00;;;;;;;;;24.75;23.25;;;;;;;;5006713;28;10057;-75
2021/03/04 13:21:29;;;;;;;;;22.50;22.50;;;;;;;;5025670;28;10077;-75
2021/03/04 13:23:56;;;;;;;;;25.50;20.00;;;;;;;;5020227;28;9811;-75
2021/03/04 13:26:23;;;;;;;;;25.25;22.00;;;;;;;;5023279;28;9777;-74
2021/03/04 13:28:51;;;;;;;;;26.00;22.25;;;;;;;;4997449;28;9941;-75
2021/03/04 13:31:18;;;;;;;;;27.00;25.50;;;;;;;;5025094;28;9925;-77
2021/03/04 13:33:45;;;;;;;;;28.50;24.50;;;;;;;;5027578;28;9953;-77
2021/03/04 13:36:12;;;;;;;;;17.00;17.00;;;;;;;;5006179;28;9957;-79
2021/03/04 13:38:40;;;;;;;;;12.50;8.25;;;;;;;;5024973;28;10106;-79
2021/03/04 13:41:07;;;;;;;;;16.50;14.25;;;;;;;;5013786;28;9888;-77
2021/03/04 13:43:34;;;;;;;;;22.00;16.25;;;;;;;;5025404;28;10218;-77
2021/03/04 13:46:01;;;;;;;;;16.50;13.75;;;;;;;;5023368;28;10287;-77
2021/03/04 13:48:28;;;;;;;;;18.00;12.75;;;;;;;;5006858;28;10292;-75
2021/03/04 13:50:55;;;;;;;;;18.75;18.00;;;;;;;;5018999;28;10272;-76
2021/03/04 13:53:23;;;;;;;;;19.25;18.00;;;;;;;;5000619;28;10528;-75
2021/03/04 13:55:50;;;;;;;;;24.00;17.50;;;;;;;;5019735;28;10604;-77
2021/03/04 13:58:17;;;;;;;;;21.25;15.75;;;;;;;;5023607;28;10530;-78
2021/03/04 14:00:44;;;;;;;;;23.50;21.25;;;;;;;;5026487;28;10394;-78
2021/03/04 14:03:11;;;;;;;;;19.50;18.25;;;;;;;;5024026;28;10480;-75
2021/03/04 14:05:38;;;;;;;;;18.00;14.00;;;;;;;;5024716;28;10658;-75
2021/03/04 14:08:05;;;;;;;;;19.00;18.00;;;;;;;;5017652;28;10273;-79
2021/03/04 14:10:33;;;;;;;;;27.50;21.75;;;;;;;;5000213;28;10483;-75
2021/03/04 14:13:01;;;;;;;;;17.50;15.00;;;;;;;;5024794;28;10492;-77
2021/03/04 14:15:27;;;;;;;;;21.25;17.25;;;;;;;;5024655;28;10481;-74
2021/03/04 14:17:54;;;;;;;;;18.00;16.25;;;;;;;;5025797;28;10448;-78
2021/03/04 14:20:23;;;;;;;;;16.75;16.75;;;;;;;;5024378;28;10497;-76
2021/03/04 14:22:51;;;;;;;;;18.25;18.25;;;;;;;;5025408;28;10518;-79
2021/03/04 14:25:18;;;;;;;;;18.75;18.75;;;;;;;;5024478;28;10702;-78